Terminal Aerodrome Forecast
Issued by NWS Tulsa, OK

Home | Current Version | Previous Version | Text Only | Print | Product List | Glossary On
Versions: 1 2 3 4 5 6 7 8 9 10 11 12 13 14 15
807
FTUS44 KTSA 201720
TAFFSM
TAF
KFSM 201720Z 2018/2118 20008KT P6SM SKC
     FM210000 15007KT P6SM SKC
     FM210600 08003KT P6SM SKC
     FM211500 17008KT P6SM SCT250=

USA.gov is the U.S. government's official web portal to all federal, state and local government web resources and services.